Time;durP1;ratioP1;P1;durP2;ratioP2;P2;SDS_P1;SDS_P2;PMS_P1;PMS_P2;Temp;Humidity;BMP_temperature;BMP_pressure;BME280_temperature;BME280_humidity;BME280_pressure;Samples;Min_cycle;Max_cycle;Signal;HPM_P1;HPM_P2
2022/04/14 00:00:23;;;;;;;33.30;19.80;;;7.40;68.30;;;;;;5033395;28;20061;-14
2022/04/14 00:02:53;;;;;;;29.67;18.42;;;7.40;69.10;;;;;;5033278;28;20026;-14
2022/04/14 00:05:19;;;;;;;29.77;18.15;;;7.30;68.70;;;;;;5032916;28;20057;-14
2022/04/14 00:07:45;;;;;;;29.67;18.45;;;7.30;68.40;;;;;;5033363;28;20497;-16
2022/04/14 00:10:14;;;;;;;27.58;18.85;;;7.30;68.70;;;;;;5033155;28;20120;-14
2022/04/14 00:12:41;;;;;;;33.08;21.40;;;7.30;69.00;;;;;;5033170;28;20507;-14
2022/04/14 00:15:09;;;;;;;34.50;20.10;;;7.30;70.10;;;;;;5033417;28;20047;-14
2022/04/14 00:17:35;;;;;;;34.50;20.70;;;7.30;69.90;;;;;;5033418;28;20030;-13
2022/04/14 00:20:06;;;;;;;38.40;22.45;;;7.20;69.40;;;;;;5033357;28;20044;-14
2022/04/14 00:22:33;;;;;;;35.20;21.63;;;7.20;70.00;;;;;;5032329;28;20397;-15
2022/04/14 00:24:59;;;;;;;36.08;21.85;;;7.20;70.30;;;;;;5032848;28;20389;-17
2022/04/14 00:27:25;;;;;;;33.10;19.15;;;7.20;70.10;;;;;;5033005;28;20485;-15
2022/04/14 00:29:51;;;;;;;37.05;22.55;;;7.10;69.70;;;;;;5033286;28;20064;-15
2022/04/14 00:32:17;;;;;;;36.20;22.02;;;7.10;69.70;;;;;;5032736;28;20026;-17
2022/04/14 00:34:43;;;;;;;39.15;24.65;;;7.10;69.60;;;;;;5032962;28;20032;-16
2022/04/14 00:37:10;;;;;;;35.88;21.45;;;7.00;69.60;;;;;;5033450;28;20022;-14
2022/04/14 00:39:38;;;;;;;36.00;21.85;;;7.00;69.40;;;;;;5033056;28;20044;-16
2022/04/14 00:42:13;;;;;;;37.63;21.20;;;7.00;69.80;;;;;;5032854;28;20033;-15
2022/04/14 00:44:39;;;;;;;37.58;20.85;;;7.00;70.10;;;;;;5033119;28;20445;-14
2022/04/14 00:47:06;;;;;;;35.30;23.52;;;7.00;69.90;;;;;;5033076;28;20116;-14
2022/04/14 00:49:34;;;;;;;40.40;24.33;;;7.00;70.80;;;;;;5033135;28;20025;-13
2022/04/14 00:52:01;;;;;;;33.10;21.30;;;7.00;70.80;;;;;;5033655;28;20030;-15
2022/04/14 00:54:31;;;;;;;33.17;20.02;;;6.90;70.40;;;;;;5032511;28;20032;-14
2022/04/14 00:56:58;;;;;;;38.83;25.77;;;6.90;70.40;;;;;;5032809;28;20044;-13
2022/04/14 00:59:25;;;;;;;38.88;25.02;;;6.90;71.00;;;;;;5032746;28;20064;-15
2022/04/14 01:01:51;;;;;;;32.08;20.38;;;6.90;70.50;;;;;;5032912;28;20393;-15
2022/04/14 01:04:18;;;;;;;34.15;21.52;;;6.80;70.30;;;;;;5032493;28;20450;-13
2022/04/14 01:06:44;;;;;;;40.95;23.88;;;6.80;70.60;;;;;;5032588;28;20040;-16
2022/04/14 01:09:19;;;;;;;46.80;28.23;;;6.80;72.30;;;;;;5033153;28;20021;-16
2022/04/14 01:11:55;;;;;;;33.85;21.58;;;6.80;71.70;;;;;;5032616;28;20030;-12
2022/04/14 01:14:32;;;;;;;31.20;18.67;;;6.70;71.70;;;;;;5032489;28;20021;-15
2022/04/14 01:17:00;;;;;;;30.00;19.38;;;6.60;70.90;;;;;;5032640;28;20030;-16
2022/04/14 01:19:28;;;;;;;33.70;21.27;;;6.60;70.80;;;;;;5032518;28;20048;-16
2022/04/14 01:22:03;;;;;;;36.92;23.08;;;6.60;71.20;;;;;;5032658;28;20374;-14
2022/04/14 01:24:30;;;;;;;35.67;21.67;;;6.60;71.80;;;;;;5032195;28;20033;-16
2022/04/14 01:26:58;;;;;;;28.92;19.83;;;6.50;72.10;;;;;;5032645;28;20033;-14
2022/04/14 01:29:26;;;;;;;32.08;18.35;;;6.40;71.50;;;;;;5032433;28;20029;-15
2022/04/14 01:31:54;;;;;;;33.40;20.70;;;6.40;71.20;;;;;;5032847;28;20072;-14
2022/04/14 01:34:20;;;;;;;35.22;21.70;;;6.40;71.60;;;;;;5034608;28;20083;-16
2022/04/14 01:36:46;;;;;;;36.08;22.95;;;6.40;71.60;;;;;;5035801;28;20036;-16
2022/04/14 01:39:14;;;;;;;35.47;23.95;;;6.30;72.90;;;;;;5035787;28;20029;-16
2022/04/14 01:41:42;;;;;;;46.00;25.05;;;6.30;73.40;;;;;;5035846;28;20508;-16
2022/04/14 01:44:10;;;;;;;33.22;22.15;;;6.30;72.40;;;;;;5035924;28;20079;-16
2022/04/14 01:46:41;;;;;;;32.65;20.35;;;6.20;72.70;;;;;;5035472;28;20436;-14
2022/04/14 01:49:10;;;;;;;39.90;25.20;;;6.30;72.90;;;;;;5035724;28;20544;-17
2022/04/14 01:51:37;;;;;;;37.92;24.23;;;6.20;73.40;;;;;;5035879;28;20033;-14
2022/04/14 01:54:04;;;;;;;38.65;24.67;;;6.20;73.20;;;;;;5035571;28;20033;-14
2022/04/14 01:56:30;;;;;;;35.92;22.42;;;6.20;73.10;;;;;;5035364;28;20033;-16
2022/04/14 01:58:56;;;;;;;37.80;22.88;;;6.20;72.40;;;;;;5035974;28;20029;-14
2022/04/14 02:01:22;;;;;;;34.28;21.83;;;6.20;72.70;;;;;;5035782;28;20053;-15
2022/04/14 02:03:48;;;;;;;33.78;19.52;;;6.20;72.50;;;;;;5035655;28;20086;-16
2022/04/14 02:06:15;;;;;;;39.67;23.67;;;6.20;72.40;;;;;;5034894;28;20045;-16
2022/04/14 02:08:41;;;;;;;42.38;25.92;;;6.20;72.90;;;;;;5035229;28;20025;-14
2022/04/14 02:11:10;;;;;;;37.60;23.25;;;6.30;73.50;;;;;;5036081;28;20390;-15
2022/04/14 02:13:36;;;;;;;40.25;24.95;;;6.30;73.60;;;;;;5035514;28;20037;-14
2022/04/14 02:16:03;;;;;;;42.58;24.48;;;6.30;73.80;;;;;;5035184;28;20021;-15
2022/04/14 02:18:29;;;;;;;39.80;23.83;;;6.20;74.30;;;;;;5035002;28;20037;-15
2022/04/14 02:20:55;;;;;;;41.72;25.25;;;6.20;73.70;;;;;;5035101;28;20029;-16
2022/04/14 02:23:22;;;;;;;43.50;27.55;;;6.20;73.60;;;;;;5034986;28;20113;-14
2022/04/14 02:25:48;;;;;;;35.35;22.17;;;6.10;73.50;;;;;;5035392;28;20029;-16
2022/04/14 02:28:14;;;;;;;44.28;23.73;;;6.00;73.70;;;;;;5035105;28;20029;-15
2022/04/14 02:30:40;;;;;;;42.47;24.63;;;6.00;73.80;;;;;;5034951;28;20436;-16
2022/04/14 02:33:06;;;;;;;37.55;22.83;;;6.00;74.40;;;;;;5035415;28;20031;-15
2022/04/14 02:35:32;;;;;;;32.85;21.80;;;6.00;74.10;;;;;;5035141;28;20029;-16
2022/04/14 02:37:58;;;;;;;45.65;25.92;;;6.00;73.80;;;;;;5034706;28;20116;-17
2022/04/14 02:40:25;;;;;;;45.60;26.42;;;6.00;74.80;;;;;;5035147;28;20040;-17
2022/04/14 02:42:53;;;;;;;40.60;25.58;;;5.90;75.40;;;;;;5034701;28;20033;-15
2022/04/14 02:45:21;;;;;;;36.38;22.60;;;5.90;74.60;;;;;;5034100;28;20044;-16
2022/04/14 02:47:47;;;;;;;47.30;27.42;;;5.90;74.20;;;;;;5034934;28;20099;-15
2022/04/14 02:50:13;;;;;;;45.72;28.60;;;5.90;74.20;;;;;;5034915;28;20061;-14
2022/04/14 02:52:39;;;;;;;42.00;24.58;;;5.90;74.00;;;;;;5034817;28;20079;-14
2022/04/14 02:55:05;;;;;;;46.75;29.42;;;5.80;74.30;;;;;;5034308;28;20404;-16
2022/04/14 02:57:31;;;;;;;39.28;23.90;;;5.90;74.90;;;;;;5034402;28;20030;-16
2022/04/14 02:59:58;;;;;;;41.10;22.60;;;5.90;74.90;;;;;;5034683;28;20026;-15
2022/04/14 03:02:24;;;;;;;39.22;24.10;;;5.80;74.40;;;;;;5034385;28;20033;-14
2022/04/14 03:04:51;;;;;;;35.90;23.80;;;5.90;74.40;;;;;;5034103;28;20497;-14
2022/04/14 03:07:17;;;;;;;38.55;25.50;;;5.90;74.80;;;;;;5034968;28;20038;-16
2022/04/14 03:09:43;;;;;;;42.70;26.48;;;5.90;74.50;;;;;;5034342;28;20021;-17
2022/04/14 03:12:09;;;;;;;53.00;29.88;;;5.90;74.80;;;;;;5032861;28;20496;-15
2022/04/14 03:14:35;;;;;;;39.17;24.33;;;5.90;74.60;;;;;;5033943;28;20021;-16
2022/04/14 03:17:01;;;;;;;55.05;31.73;;;5.80;74.30;;;;;;5034061;28;20434;-16
2022/04/14 03:19:27;;;;;;;48.60;28.65;;;5.90;74.50;;;;;;5034211;28;20033;-16
2022/04/14 03:21:53;;;;;;;69.70;39.47;;;5.80;74.70;;;;;;5032760;28;20029;-14
2022/04/14 03:24:19;;;;;;;52.50;30.92;;;5.80;74.70;;;;;;5032346;28;20026;-17
2022/04/14 03:26:45;;;;;;;46.90;30.85;;;5.80;75.00;;;;;;5034353;28;20055;-16
2022/04/14 03:29:11;;;;;;;53.10;29.63;;;5.80;75.00;;;;;;5034224;28;20422;-15
2022/04/14 03:31:37;;;;;;;49.20;29.83;;;5.80;75.10;;;;;;5033769;28;20039;-16
2022/04/14 03:34:03;;;;;;;46.22;27.73;;;5.80;75.20;;;;;;5033720;28;20041;-14
2022/04/14 03:36:29;;;;;;;43.65;26.35;;;5.80;75.30;;;;;;5033464;28;20033;-17
2022/04/14 03:38:55;;;;;;;44.92;28.02;;;5.80;75.60;;;;;;5033973;28;20021;-14
2022/04/14 03:41:21;;;;;;;39.80;24.00;;;5.90;75.50;;;;;;5033886;28;20029;-14
2022/04/14 03:43:47;;;;;;;50.25;28.38;;;5.80;75.50;;;;;;5034218;28;20033;-17
2022/04/14 03:46:15;;;;;;;35.60;25.50;;;5.80;75.90;;;;;;5033600;28;20478;-16
2022/04/14 03:48:44;;;;;;;44.92;27.35;;;5.80;75.90;;;;;;5033525;28;20147;-17
2022/04/14 03:51:10;;;;;;;46.60;29.55;;;5.70;75.20;;;;;;5033785;28;20025;-16
2022/04/14 03:53:36;;;;;;;54.97;32.83;;;5.70;76.40;;;;;;5033628;28;20041;-16
2022/04/14 03:56:02;;;;;;;40.63;25.08;;;5.60;76.00;;;;;;5032585;28;20026;-15
2022/04/14 03:58:28;;;;;;;46.80;29.05;;;5.70;75.80;;;;;;5033096;28;20381;-17
2022/04/14 04:00:54;;;;;;;39.97;24.70;;;5.70;75.80;;;;;;5033328;28;20037;-14
2022/04/14 04:03:20;;;;;;;48.22;30.02;;;5.70;75.90;;;;;;5033620;28;20104;-14
2022/04/14 04:05:46;;;;;;;41.05;26.85;;;5.60;75.90;;;;;;5032943;28;20045;-14
2022/04/14 04:08:12;;;;;;;36.33;22.83;;;5.60;75.80;;;;;;5033412;28;20075;-16
2022/04/14 04:10:38;;;;;;;41.08;25.58;;;5.50;76.00;;;;;;5032984;28;20117;-16
2022/04/14 04:13:04;;;;;;;45.55;27.55;;;5.50;75.90;;;;;;5033171;28;20482;-16
2022/04/14 04:15:36;;;;;;;47.78;29.35;;;5.60;76.40;;;;;;5033430;28;20112;-16
2022/04/14 04:18:04;;;;;;;51.15;30.85;;;5.50;76.20;;;;;;5033231;28;20485;-15
2022/04/14 04:20:31;;;;;;;45.90;28.13;;;5.50;76.10;;;;;;5032926;28;20052;-15
2022/04/14 04:22:57;;;;;;;38.50;24.08;;;5.50;76.30;;;;;;5031767;28;20077;-16
2022/04/14 04:25:23;;;;;;;48.35;26.92;;;5.50;76.40;;;;;;5033147;28;20501;-14
2022/04/14 04:27:49;;;;;;;50.25;29.80;;;5.50;76.80;;;;;;5031806;28;20470;-16
2022/04/14 04:30:16;;;;;;;51.35;29.13;;;5.50;76.80;;;;;;5032749;28;20032;-14
2022/04/14 04:32:42;;;;;;;52.72;30.83;;;5.50;76.80;;;;;;5032925;28;20022;-15
2022/04/14 04:35:09;;;;;;;59.17;33.58;;;5.60;76.70;;;;;;5033031;28;20022;-14
2022/04/14 04:37:36;;;;;;;45.55;27.45;;;5.60;76.80;;;;;;5033276;28;20030;-16
2022/04/14 04:40:02;;;;;;;52.20;30.33;;;5.60;77.10;;;;;;5033131;28;20033;-17
2022/04/14 04:42:28;;;;;;;49.70;29.50;;;5.60;76.60;;;;;;5032989;28;20029;-16
2022/04/14 04:44:54;;;;;;;54.55;32.17;;;5.70;76.90;;;;;;5032840;28;20508;-17
2022/04/14 04:47:20;;;;;;;63.72;33.53;;;5.80;76.90;;;;;;5032731;28;20032;-14
2022/04/14 04:49:47;;;;;;;56.45;32.28;;;5.80;76.90;;;;;;5032816;28;20032;-15
2022/04/14 04:52:14;;;;;;;65.72;36.53;;;5.90;77.00;;;;;;5032886;28;20104;-16
2022/04/14 04:54:40;;;;;;;54.60;32.08;;;5.90;77.30;;;;;;5032655;28;20505;-17
2022/04/14 04:57:06;;;;;;;54.90;33.63;;;6.00;77.50;;;;;;5032735;28;20049;-16
2022/04/14 04:59:33;;;;;;;57.33;32.17;;;6.20;77.70;;;;;;5032882;28;20022;-14
2022/04/14 05:02:00;;;;;;;54.45;33.53;;;6.30;78.00;;;;;;5032674;28;20071;-15
2022/04/14 05:04:26;;;;;;;53.40;33.90;;;6.40;78.10;;;;;;5032395;28;20452;-16
2022/04/14 05:06:52;;;;;;;57.38;33.17;;;6.70;78.00;;;;;;5032836;28;20477;-16
2022/04/14 05:09:18;;;;;;;45.83;28.63;;;6.80;78.00;;;;;;5036724;28;20071;-14
2022/04/14 05:11:44;;;;;;;59.65;36.67;;;7.00;78.10;;;;;;5036409;28;20060;-17
2022/04/14 05:14:09;;;;;;;44.55;26.88;;;7.30;78.10;;;;;;5036330;28;20033;-15
2022/04/14 05:16:37;;;;;;;49.80;30.40;;;7.50;77.60;;;;;;5036346;28;20029;-15
2022/04/14 05:19:03;;;;;;;42.38;27.58;;;7.70;77.30;;;;;;5036270;28;20485;-15
2022/04/14 05:21:29;;;;;;;57.25;34.13;;;7.90;77.20;;;;;;5036774;28;20021;-14
2022/04/14 05:23:55;;;;;;;54.15;33.38;;;8.30;76.80;;;;;;5034864;28;20025;-16
2022/04/14 05:26:21;;;;;;;41.75;26.00;;;8.50;76.20;;;;;;5036150;28;20052;-15
2022/04/14 05:28:47;;;;;;;48.03;29.23;;;8.80;75.80;;;;;;5036811;28;20381;-16
2022/04/14 05:31:12;;;;;;;42.03;27.83;;;9.00;75.50;;;;;;5036300;28;20541;-14
2022/04/14 05:33:39;;;;;;;40.30;27.23;;;9.40;75.10;;;;;;5036304;28;20555;-17
2022/04/14 05:36:05;;;;;;;50.10;29.90;;;9.90;74.30;;;;;;5035940;28;20021;-15
2022/04/14 05:38:31;;;;;;;42.53;27.08;;;10.30;73.70;;;;;;5035654;28;20048;-17
2022/04/14 05:40:57;;;;;;;43.13;29.15;;;10.50;73.30;;;;;;5036204;28;20033;-15
2022/04/14 05:43:25;;;;;;;39.20;26.88;;;10.90;73.00;;;;;;5035872;28;20509;-16
2022/04/14 05:45:51;;;;;;;41.03;25.73;;;11.20;72.50;;;;;;5035974;28;20057;-16
2022/04/14 05:48:18;;;;;;;42.10;28.55;;;11.50;72.20;;;;;;5035892;28;20061;-16
2022/04/14 05:50:46;;;;;;;38.60;25.08;;;11.90;71.60;;;;;;5035589;28;20116;-15
2022/04/14 05:53:12;;;;;;;41.00;24.33;;;12.20;71.00;;;;;;5034360;28;20033;-17
2022/04/14 05:55:41;;;;;;;42.47;27.75;;;12.40;70.50;;;;;;5035600;28;20026;-15
2022/04/14 05:58:07;;;;;;;36.95;25.20;;;12.50;70.50;;;;;;5035579;28;20034;-14
2022/04/14 06:00:36;;;;;;;40.00;25.63;;;12.50;70.30;;;;;;5035377;28;20091;-15
2022/04/14 06:03:02;;;;;;;35.22;23.02;;;12.70;70.50;;;;;;5035975;28;20029;-15
2022/04/14 06:05:30;;;;;;;40.08;28.17;;;13.00;70.30;;;;;;5035272;28;20053;-14
2022/04/14 06:07:57;;;;;;;33.50;22.90;;;13.30;69.90;;;;;;5035437;28;20029;-15
2022/04/14 06:10:24;;;;;;;32.22;21.23;;;13.60;69.80;;;;;;5035142;28;20097;-14
2022/04/14 06:12:50;;;;;;;32.65;22.08;;;13.90;69.60;;;;;;5035591;28;20026;-15
2022/04/14 06:15:16;;;;;;;38.90;26.65;;;14.20;68.90;;;;;;5035229;28;20029;-16
2022/04/14 06:17:43;;;;;;;32.75;20.98;;;14.60;66.80;;;;;;5035393;28;20041;-14
2022/04/14 06:20:10;;;;;;;38.90;23.15;;;14.90;67.50;;;;;;5034431;28;20075;-14
2022/04/14 06:22:41;;;;;;;27.90;19.98;;;15.20;66.10;;;;;;5034822;28;20022;-14
2022/04/14 06:25:22;;;;;;;25.95;19.67;;;15.40;65.90;;;;;;5034992;28;20029;-14
2022/04/14 06:27:50;;;;;;;27.23;18.20;;;15.80;65.40;;;;;;5035058;28;20116;-15
2022/04/14 06:30:18;;;;;;;27.77;18.85;;;16.30;64.60;;;;;;5034746;28;20030;-14
2022/04/14 06:33:04;;;;;;;27.25;17.63;;;16.60;63.00;;;;;;5035242;28;20067;-14
2022/04/14 06:35:31;;;;;;;23.52;17.65;;;17.10;59.80;;;;;;5035179;28;20026;-14
2022/04/14 06:37:57;;;;;;;26.85;18.55;;;17.50;61.00;;;;;;5035153;28;20063;-14
2022/04/14 06:40:23;;;;;;;23.23;16.40;;;17.90;60.20;;;;;;5034846;28;20057;-14
2022/04/14 06:42:50;;;;;;;37.00;22.25;;;18.20;59.20;;;;;;5035092;28;20071;-14
2022/04/14 06:45:16;;;;;;;21.27;13.35;;;18.60;57.40;;;;;;5034855;28;20030;-15
2022/04/14 06:47:42;;;;;;;22.85;14.52;;;18.80;57.30;;;;;;5034941;28;20120;-14
2022/04/14 06:50:09;;;;;;;22.17;14.55;;;19.10;55.20;;;;;;5034665;28;20496;-14
2022/04/14 06:52:38;;;;;;;27.55;17.48;;;19.40;53.70;;;;;;5033130;28;20029;-15
2022/04/14 06:55:06;;;;;;;25.52;16.90;;;19.70;52.80;;;;;;5034684;28;20041;-14
2022/04/14 06:57:32;;;;;;;23.27;15.13;;;19.90;52.90;;;;;;5034303;28;20485;-15
2022/04/14 06:59:58;;;;;;;23.88;15.98;;;20.20;52.40;;;;;;5034383;28;20112;-15
2022/04/14 07:02:24;;;;;;;31.65;21.75;;;20.30;52.50;;;;;;5034145;28;20033;-14
2022/04/14 07:04:50;;;;;;;33.17;20.35;;;20.50;52.00;;;;;;5034154;28;20045;-14
2022/04/14 07:07:16;;;;;;;25.02;16.23;;;20.60;51.60;;;;;;5034491;28;20034;-14
2022/04/14 07:09:42;;;;;;;25.50;16.77;;;20.80;51.50;;;;;;5034131;28;20083;-14
2022/04/14 07:12:08;;;;;;;27.85;16.60;;;21.00;49.30;;;;;;5034477;28;20120;-14
2022/04/14 07:14:35;;;;;;;22.65;15.02;;;21.10;48.10;;;;;;5034282;28;20025;-15
2022/04/14 07:17:01;;;;;;;20.92;15.02;;;21.20;48.50;;;;;;5034068;28;20033;-15
2022/04/14 07:19:27;;;;;;;21.17;14.63;;;21.40;48.30;;;;;;5034270;28;20025;-14
2022/04/14 07:21:54;;;;;;;25.65;17.63;;;21.50;47.30;;;;;;5034274;28;20029;-14
2022/04/14 07:24:20;;;;;;;31.25;22.08;;;21.70;47.40;;;;;;5033749;28;20025;-14
2022/04/14 07:26:46;;;;;;;34.67;23.55;;;21.70;47.50;;;;;;5033791;28;20067;-14
2022/04/14 07:29:12;;;;;;;28.42;20.10;;;21.70;47.80;;;;;;5034130;28;20021;-15
2022/04/14 07:31:41;;;;;;;27.98;18.52;;;21.70;48.30;;;;;;5033796;28;20066;-14
2022/04/14 07:34:08;;;;;;;23.63;16.95;;;21.70;48.40;;;;;;5034020;28;20103;-14
2022/04/14 07:36:34;;;;;;;29.92;19.27;;;21.80;48.20;;;;;;5033666;28;20017;-14
2022/04/14 07:39:01;;;;;;;31.02;20.85;;;21.90;47.80;;;;;;5034461;28;20026;-14
2022/04/14 07:41:27;;;;;;;22.35;16.40;;;21.90;48.00;;;;;;5033635;28;20532;-14
2022/04/14 07:43:54;;;;;;;25.80;19.83;;;21.90;48.20;;;;;;5033749;28;20026;-14
2022/04/14 07:46:20;;;;;;;24.95;17.67;;;22.00;48.20;;;;;;5033316;28;20044;-14
2022/04/14 07:48:46;;;;;;;21.02;15.75;;;22.00;48.10;;;;;;5034017;28;20033;-14
2022/04/14 07:51:12;;;;;;;19.33;14.70;;;22.10;48.00;;;;;;5033492;28;20033;-14
2022/04/14 07:53:38;;;;;;;27.02;17.63;;;22.10;47.90;;;;;;5033657;28;20033;-13
2022/04/14 07:56:05;;;;;;;25.23;19.27;;;22.00;47.30;;;;;;5033687;28;20039;-14
2022/04/14 07:58:32;;;;;;;21.42;15.65;;;22.00;47.30;;;;;;5033126;28;20386;-14
2022/04/14 08:00:57;;;;;;;27.30;19.27;;;22.00;47.30;;;;;;5033586;28;20079;-14
2022/04/14 08:03:23;;;;;;;21.48;14.45;;;21.90;47.60;;;;;;5033568;28;20026;-14
2022/04/14 08:05:49;;;;;;;26.13;16.67;;;21.60;48.20;;;;;;5032961;28;20045;-14
2022/04/14 08:08:17;;;;;;;25.77;18.77;;;21.40;48.30;;;;;;5033375;28;20033;-14
2022/04/14 08:10:46;;;;;;;17.02;14.13;;;21.50;48.70;;;;;;5033206;28;20492;-14
2022/04/14 08:13:13;;;;;;;22.50;15.07;;;21.50;48.60;;;;;;5033425;28;20064;-14
2022/04/14 08:15:43;;;;;;;18.98;14.65;;;21.70;48.20;;;;;;5033481;28;20021;-13
2022/04/14 08:18:09;;;;;;;18.40;13.10;;;22.00;47.50;;;;;;5031939;28;20040;-13
2022/04/14 08:20:39;;;;;;;18.95;13.05;;;22.30;47.20;;;;;;5033535;28;20052;-13
2022/04/14 08:23:07;;;;;;;18.42;13.85;;;22.60;46.80;;;;;;5033679;28;20063;-13
2022/04/14 08:25:35;;;;;;;21.40;15.45;;;22.90;46.40;;;;;;5033236;28;20101;-14
2022/04/14 08:28:04;;;;;;;20.17;14.55;;;23.10;45.70;;;;;;5033213;28;20028;-14
2022/04/14 08:30:31;;;;;;;18.10;12.40;;;23.20;45.70;;;;;;5033532;28;20018;-14
2022/04/14 08:33:01;;;;;;;19.30;13.15;;;23.30;45.80;;;;;;5033009;28;20033;-14
2022/04/14 08:35:27;;;;;;;16.15;12.90;;;23.40;45.10;;;;;;5032916;28;20037;-14
2022/04/14 08:37:54;;;;;;;16.25;11.75;;;23.30;45.00;;;;;;5032907;28;20029;-14
2022/04/14 08:40:22;;;;;;;16.58;13.07;;;23.20;45.00;;;;;;5032953;28;20109;-13
2022/04/14 08:43:16;;;;;;;14.32;10.43;;;23.20;45.40;;;;;;5034325;28;20112;-15
2022/04/14 08:45:47;;;;;;;14.82;10.40;;;23.30;45.40;;;;;;5035703;28;20051;-14
2022/04/14 08:48:15;;;;;;;20.67;12.77;;;23.40;45.20;;;;;;5036640;28;20498;-14
2022/04/14 08:50:43;;;;;;;19.55;12.75;;;23.60;45.20;;;;;;5037461;28;20017;-14
2022/04/14 08:53:09;;;;;;;20.40;14.57;;;23.80;44.80;;;;;;5037395;28;20075;-15
2022/04/14 08:55:40;;;;;;;16.10;10.48;;;23.90;43.50;;;;;;5037282;28;20068;-14
2022/04/14 08:58:14;;;;;;;19.08;13.98;;;24.00;44.60;;;;;;5036746;28;20059;-14
2022/04/14 09:00:41;;;;;;;16.40;12.13;;;24.20;44.30;;;;;;5036911;28;20025;-15
2022/04/14 09:03:07;;;;;;;19.70;13.30;;;24.30;43.80;;;;;;5036855;28;20025;-14
2022/04/14 09:05:34;;;;;;;18.15;14.68;;;24.30;42.30;;;;;;5036188;28;20053;-14
2022/04/14 09:08:01;;;;;;;15.75;11.57;;;24.00;42.00;;;;;;5036532;28;20037;-14
2022/04/14 09:10:27;;;;;;;19.60;12.75;;;23.70;42.50;;;;;;5036264;28;20033;-15
2022/04/14 09:12:53;;;;;;;14.82;9.68;;;23.50;43.10;;;;;;5036419;28;20034;-15
2022/04/14 09:15:20;;;;;;;16.42;12.68;;;23.40;42.80;;;;;;5036711;28;20484;-15
2022/04/14 09:17:46;;;;;;;19.10;13.00;;;23.40;42.40;;;;;;5036593;28;20044;-14
2022/04/14 09:20:33;;;;;;;16.38;10.77;;;23.20;41.60;;;;;;5036283;28;20477;-14
2022/04/14 09:23:11;;;;;;;15.43;10.25;;;23.10;42.80;;;;;;5036180;28;20026;-14
2022/04/14 09:25:37;;;;;;;11.63;7.75;;;23.40;42.00;;;;;;5036136;28;20497;-14
2022/04/14 09:28:14;;;;;;;12.18;8.07;;;23.80;42.40;;;;;;5036053;28;20032;-13
2022/04/14 09:30:56;;;;;;;13.25;8.05;;;24.30;41.60;;;;;;5036230;28;20038;-14
2022/04/14 09:33:22;;;;;;;11.38;7.68;;;24.80;40.80;;;;;;5036049;28;20048;-13
2022/04/14 09:36:08;;;;;;;13.73;8.63;;;25.40;40.40;;;;;;5036262;28;20072;-14
2022/04/14 09:38:51;;;;;;;12.07;8.00;;;25.90;39.20;;;;;;5035681;28;20432;-13
2022/04/14 09:41:46;;;;;;;12.25;8.30;;;26.30;39.00;;;;;;5036084;28;20041;-14
2022/04/14 09:44:15;;;;;;;11.25;7.57;;;26.80;37.70;;;;;;4994561;28;20051;-14
2022/04/14 09:46:46;;;;;;;13.70;9.05;;;27.10;36.90;;;;;;4995008;28;20117;-14
2022/04/14 09:49:16;;;;;;;10.57;7.18;;;27.40;36.50;;;;;;4994532;28;20038;-14
2022/04/14 09:51:45;;;;;;;9.40;6.35;;;27.50;36.20;;;;;;4994366;28;20030;-14
2022/04/14 09:54:27;;;;;;;13.13;8.50;;;27.70;36.20;;;;;;4992940;28;20031;-14
2022/04/14 09:56:55;;;;;;;13.43;9.30;;;27.90;33.60;;;;;;4994592;28;20034;-14
2022/04/14 09:59:28;;;;;;;11.35;7.90;;;28.10;33.20;;;;;;4994233;28;20034;-14
2022/04/14 10:02:16;;;;;;;13.23;7.88;;;28.20;32.30;;;;;;4994277;28;20042;-14
2022/04/14 10:04:44;;;;;;;11.43;7.70;;;28.30;32.60;;;;;;4993690;28;20042;-14
2022/04/14 10:07:18;;;;;;;11.52;7.25;;;28.40;34.00;;;;;;4994063;28;20375;-14
2022/04/14 10:09:49;;;;;;;9.10;6.22;;;28.50;34.40;;;;;;4993936;28;20031;-15
2022/04/14 10:12:23;;;;;;;10.73;6.20;;;28.50;34.40;;;;;;4993837;28;20097;-15
2022/04/14 10:14:59;;;;;;;11.45;6.88;;;28.70;33.30;;;;;;4994065;28;20030;-14
2022/04/14 10:17:27;;;;;;;10.45;6.90;;;28.90;32.40;;;;;;4994639;28;20367;-14
2022/04/14 10:19:53;;;;;;;9.98;5.80;;;29.10;32.20;;;;;;5002678;28;20029;-15
2022/04/14 10:22:21;;;;;;;10.95;6.70;;;29.40;30.40;;;;;;5035051;28;20108;-14
2022/04/14 10:24:47;;;;;;;10.15;6.40;;;29.50;30.40;;;;;;5035333;28;20083;-14
2022/04/14 10:27:16;;;;;;;14.32;7.20;;;29.60;30.30;;;;;;5034914;28;20385;-14
2022/04/14 10:29:43;;;;;;;8.18;5.70;;;29.50;30.40;;;;;;5035333;28;20033;-14
2022/04/14 10:32:12;;;;;;;9.93;5.15;;;29.50;31.10;;;;;;5035310;28;20092;-14
2022/04/14 10:34:39;;;;;;;12.13;6.80;;;29.70;30.90;;;;;;5034686;28;20060;-15
2022/04/14 10:37:08;;;;;;;11.85;6.75;;;29.90;30.10;;;;;;5034772;28;20117;-14
2022/04/14 10:39:43;;;;;;;12.25;5.80;;;30.20;29.60;;;;;;5035033;28;20485;-13
2022/04/14 10:42:10;;;;;;;9.93;5.78;;;30.40;30.00;;;;;;5034814;28;20036;-14
2022/04/14 10:44:45;;;;;;;10.90;6.72;;;30.60;29.50;;;;;;5034848;28;20057;-13
2022/04/14 10:47:13;;;;;;;10.45;5.68;;;30.80;29.60;;;;;;5034996;28;20504;-14
2022/04/14 10:49:42;;;;;;;11.45;6.13;;;31.00;30.00;;;;;;5034908;28;20052;-14
2022/04/14 10:52:27;;;;;;;10.57;5.63;;;31.20;28.80;;;;;;5034895;28;20116;-15
2022/04/14 10:54:56;;;;;;;8.27;5.40;;;31.30;28.70;;;;;;5034981;28;20063;-15
2022/04/14 10:57:36;;;;;;;9.15;4.88;;;31.40;28.00;;;;;;5034503;28;20116;-14
2022/04/14 11:00:33;;;;;;;8.25;4.70;;;31.60;28.40;;;;;;5034765;28;20029;-14
2022/04/14 11:03:08;;;;;;;9.27;5.93;;;31.80;27.60;;;;;;5034788;28;20101;-14
2022/04/14 11:05:45;;;;;;;8.45;5.32;;;31.90;28.10;;;;;;5033731;28;20084;-13
2022/04/14 11:08:32;;;;;;;8.23;4.13;;;31.90;27.80;;;;;;5034436;28;20025;-14
2022/04/14 11:11:09;;;;;;;10.07;5.47;;;31.70;28.00;;;;;;5034209;28;20413;-14
2022/04/14 11:13:54;;;;;;;11.02;5.97;;;31.70;27.30;;;;;;5034166;28;20032;-14
2022/04/14 11:16:41;;;;;;;9.93;5.50;;;31.80;28.50;;;;;;5033847;28;20489;-14
2022/04/14 11:19:24;;;;;;;11.13;6.57;;;32.10;28.30;;;;;;5034984;28;20477;-14
2022/04/14 11:24:40;;;;;;;10.77;6.20;;;32.60;27.50;;;;;;5034031;28;20485;-15
2022/04/14 11:27:15;;;;;;;9.55;5.95;;;32.90;26.40;;;;;;5034626;28;20552;-14
2022/04/14 11:29:43;;;;;;;8.85;5.60;;;33.20;26.10;;;;;;5033835;28;20476;-14
2022/04/14 11:32:10;;;;;;;12.00;6.30;;;33.40;26.50;;;;;;5034675;28;20060;-15
2022/04/14 11:34:39;;;;;;;9.13;5.53;;;33.60;26.40;;;;;;5033841;28;20489;-13
2022/04/14 11:37:39;;;;;;;9.15;5.40;;;33.80;25.40;;;;;;5034355;28;20037;-13
2022/04/14 11:40:15;;;;;;;7.13;4.88;;;33.90;23.90;;;;;;5033765;28;20029;-13
2022/04/14 11:42:43;;;;;;;8.32;5.25;;;33.80;25.10;;;;;;5034191;28;20112;-14
2022/04/14 11:45:09;;;;;;;8.07;4.57;;;33.90;25.00;;;;;;5032436;28;20029;-14
2022/04/14 11:47:38;;;;;;;9.05;5.43;;;34.00;25.20;;;;;;5033473;28;20026;-13
2022/04/14 11:50:06;;;;;;;14.70;6.65;;;34.00;25.30;;;;;;5034112;28;20061;-15
2022/04/14 11:52:33;;;;;;;9.95;5.13;;;34.10;25.50;;;;;;5033533;28;20469;-14
2022/04/14 11:55:00;;;;;;;10.98;5.65;;;34.20;25.70;;;;;;5033584;28;20072;-14
2022/04/14 11:57:29;;;;;;;8.82;5.05;;;34.40;25.20;;;;;;5033814;28;20037;-13
2022/04/14 12:00:11;;;;;;;9.52;6.00;;;34.60;25.30;;;;;;5033425;28;20543;-14
2022/04/14 12:02:37;;;;;;;11.43;4.50;;;34.90;25.00;;;;;;5033222;28;20509;-14
2022/04/14 12:05:05;;;;;;;8.52;4.65;;;35.10;25.10;;;;;;5033101;28;20514;-15
2022/04/14 12:07:33;;;;;;;9.23;4.82;;;35.20;24.60;;;;;;5033670;28;20096;-14
2022/04/14 12:10:03;;;;;;;7.68;4.75;;;35.40;24.40;;;;;;5033452;28;20029;-15
2022/04/14 12:12:34;;;;;;;6.78;4.22;;;35.50;23.90;;;;;;5033312;28;20052;-14
2022/04/14 12:15:06;;;;;;;6.85;4.13;;;35.60;23.70;;;;;;5033181;28;20484;-15
2022/04/14 12:17:35;;;;;;;7.10;4.00;;;35.80;23.70;;;;;;5032457;28;20477;-14
2022/04/14 12:20:03;;;;;;;8.27;4.10;;;35.90;24.30;;;;;;5033202;28;20076;-14
2022/04/14 12:22:32;;;;;;;8.40;4.75;;;36.10;23.80;;;;;;5032876;28;20025;-14
2022/04/14 12:25:00;;;;;;;7.25;3.88;;;36.00;23.50;;;;;;5033275;28;20056;-13
2022/04/14 12:27:30;;;;;;;9.52;4.38;;;35.90;23.30;;;;;;5033471;28;20068;-14
2022/04/14 12:30:04;;;;;;;9.60;4.57;;;35.90;22.80;;;;;;5033424;28;20064;-14
2022/04/14 12:32:31;;;;;;;6.78;3.97;;;35.90;22.90;;;;;;5033131;28;20124;-14
2022/04/14 12:34:57;;;;;;;6.60;4.07;;;36.00;23.30;;;;;;5033065;28;20037;-14
2022/04/14 12:37:42;;;;;;;10.18;4.72;;;36.20;23.40;;;;;;5032877;28;20037;-14
2022/04/14 12:40:08;;;;;;;8.68;4.30;;;36.40;23.50;;;;;;5032920;28;20489;-14
2022/04/14 12:42:35;;;;;;;8.98;4.35;;;36.40;23.50;;;;;;5032691;28;20437;-14
2022/04/14 12:45:15;;;;;;;6.15;4.20;;;36.20;23.50;;;;;;5032901;28;20022;-15